sensor_id;sensor_type;location;lat;lon;timestamp;temperature;humidity
4187;DHT22;2107;52.306;10.484;2022-12-07T00:01:23;2.70;99.90
4187;DHT22;2107;52.306;10.484;2022-12-07T00:03:52;2.70;99.90
4187;DHT22;2107;52.306;10.484;2022-12-07T00:06:20;2.70;99.90
4187;DHT22;2107;52.306;10.484;2022-12-07T00:08:49;2.80;99.90
4187;DHT22;2107;52.306;10.484;2022-12-07T00:11:17;2.80;99.90
4187;DHT22;2107;52.306;10.484;2022-12-07T00:13:45;2.90;99.90
4187;DHT22;2107;52.306;10.484;2022-12-07T00:16:14;2.90;99.90
4187;DHT22;2107;52.306;10.484;2022-12-07T00:18:42;2.90;99.90
4187;DHT22;2107;52.306;10.484;2022-12-07T00:21:11;3.10;99.90
4187;DHT22;2107;52.306;10.484;2022-12-07T00:23:39;3.00;99.90
4187;DHT22;2107;52.306;10.484;2022-12-07T00:26:09;3.00;99.90
4187;DHT22;2107;52.306;10.484;2022-12-07T00:28:36;3.10;99.90
4187;DHT22;2107;52.306;10.484;2022-12-07T00:31:04;3.00;99.90
4187;DHT22;2107;52.306;10.484;2022-12-07T00:33:32;3.10;99.90
4187;DHT22;2107;52.306;10.484;2022-12-07T00:36:00;3.10;99.90
4187;DHT22;2107;52.306;10.484;2022-12-07T00:38:28;3.20;99.90
4187;DHT22;2107;52.306;10.484;2022-12-07T00:40:57;3.30;99.90
4187;DHT22;2107;52.306;10.484;2022-12-07T00:43:26;3.30;99.90
4187;DHT22;2107;52.306;10.484;2022-12-07T00:45:53;3.30;99.90
4187;DHT22;2107;52.306;10.484;2022-12-07T00:48:20;3.30;99.90
4187;DHT22;2107;52.306;10.484;2022-12-07T00:50:48;3.40;99.90
4187;DHT22;2107;52.306;10.484;2022-12-07T00:53:16;3.50;99.90
4187;DHT22;2107;52.306;10.484;2022-12-07T00:55:44;3.40;99.90
4187;DHT22;2107;52.306;10.484;2022-12-07T00:58:11;3.40;99.90
4187;DHT22;2107;52.306;10.484;2022-12-07T01:00:40;3.50;99.90
4187;DHT22;2107;52.306;10.484;2022-12-07T01:03:09;3.50;99.90
4187;DHT22;2107;52.306;10.484;2022-12-07T01:05:37;3.50;99.90
4187;DHT22;2107;52.306;10.484;2022-12-07T01:08:04;3.60;99.90
4187;DHT22;2107;52.306;10.484;2022-12-07T01:10:32;3.60;99.90
4187;DHT22;2107;52.306;10.484;2022-12-07T01:12:59;3.60;99.90
4187;DHT22;2107;52.306;10.484;2022-12-07T01:15:26;3.60;99.90
4187;DHT22;2107;52.306;10.484;2022-12-07T01:17:54;3.50;99.90
4187;DHT22;2107;52.306;10.484;2022-12-07T01:20:21;3.50;99.90
4187;DHT22;2107;52.306;10.484;2022-12-07T01:22:48;3.60;99.90
4187;DHT22;2107;52.306;10.484;2022-12-07T01:25:15;3.60;99.90
4187;DHT22;2107;52.306;10.484;2022-12-07T01:27:42;3.60;99.90
4187;DHT22;2107;52.306;10.484;2022-12-07T01:30:10;3.60;99.90
4187;DHT22;2107;52.306;10.484;2022-12-07T01:32:37;3.60;99.90
4187;DHT22;2107;52.306;10.484;2022-12-07T01:35:06;3.60;99.90
4187;DHT22;2107;52.306;10.484;2022-12-07T01:37:35;3.60;99.90
4187;DHT22;2107;52.306;10.484;2022-12-07T01:40:03;3.50;99.90
4187;DHT22;2107;52.306;10.484;2022-12-07T01:42:30;3.50;99.90
4187;DHT22;2107;52.306;10.484;2022-12-07T01:48:12;3.50;99.90
4187;DHT22;2107;52.306;10.484;2022-12-07T01:50:44;3.40;99.90
4187;DHT22;2107;52.306;10.484;2022-12-07T01:53:12;3.40;99.90
4187;DHT22;2107;52.306;10.484;2022-12-07T01:55:43;3.40;99.90
4187;DHT22;2107;52.306;10.484;2022-12-07T01:58:11;3.40;99.90
4187;DHT22;2107;52.306;10.484;2022-12-07T02:00:39;3.40;99.90
4187;DHT22;2107;52.306;10.484;2022-12-07T02:03:09;3.40;99.90
4187;DHT22;2107;52.306;10.484;2022-12-07T02:05:40;3.50;99.90
4187;DHT22;2107;52.306;10.484;2022-12-07T02:08:09;3.50;99.90
4187;DHT22;2107;52.306;10.484;2022-12-07T02:10:37;3.50;99.90
4187;DHT22;2107;52.306;10.484;2022-12-07T02:13:07;3.50;99.90
4187;DHT22;2107;52.306;10.484;2022-12-07T02:15:45;3.60;99.90
4187;DHT22;2107;52.306;10.484;2022-12-07T02:18:22;3.60;99.90
4187;DHT22;2107;52.306;10.484;2022-12-07T02:20:54;3.70;99.90
4187;DHT22;2107;52.306;10.484;2022-12-07T02:23:41;3.60;99.90
4187;DHT22;2107;52.306;10.484;2022-12-07T02:26:47;3.60;99.90
4187;DHT22;2107;52.306;10.484;2022-12-07T02:29:22;3.70;99.90
4187;DHT22;2107;52.306;10.484;2022-12-07T02:31:58;3.70;99.90
4187;DHT22;2107;52.306;10.484;2022-12-07T02:34:34;3.70;99.90
4187;DHT22;2107;52.306;10.484;2022-12-07T02:37:08;3.80;99.90
4187;DHT22;2107;52.306;10.484;2022-12-07T02:39:42;3.80;99.90
4187;DHT22;2107;52.306;10.484;2022-12-07T02:42:15;3.70;99.90
4187;DHT22;2107;52.306;10.484;2022-12-07T02:44:45;3.80;99.90
4187;DHT22;2107;52.306;10.484;2022-12-07T02:47:15;3.80;99.90
4187;DHT22;2107;52.306;10.484;2022-12-07T02:49:43;3.80;99.90
4187;DHT22;2107;52.306;10.484;2022-12-07T02:52:11;3.80;99.90
4187;DHT22;2107;52.306;10.484;2022-12-07T02:54:37;3.80;99.90
4187;DHT22;2107;52.306;10.484;2022-12-07T02:57:16;3.80;99.90
4187;DHT22;2107;52.306;10.484;2022-12-07T02:59:55;3.80;99.90
4187;DHT22;2107;52.306;10.484;2022-12-07T03:02:29;3.90;99.90
4187;DHT22;2107;52.306;10.484;2022-12-07T03:05:09;3.90;99.90
4187;DHT22;2107;52.306;10.484;2022-12-07T03:07:45;3.90;99.90
4187;DHT22;2107;52.306;10.484;2022-12-07T03:10:18;4.00;99.90
4187;DHT22;2107;52.306;10.484;2022-12-07T03:12:54;3.90;99.90
4187;DHT22;2107;52.306;10.484;2022-12-07T03:15:31;4.00;99.90
4187;DHT22;2107;52.306;10.484;2022-12-07T03:17:59;4.00;99.90
4187;DHT22;2107;52.306;10.484;2022-12-07T03:20:29;4.00;99.90
4187;DHT22;2107;52.306;10.484;2022-12-07T03:22:57;4.00;99.90
4187;DHT22;2107;52.306;10.484;2022-12-07T03:25:24;4.00;99.90
4187;DHT22;2107;52.306;10.484;2022-12-07T03:27:54;4.10;99.90
4187;DHT22;2107;52.306;10.484;2022-12-07T03:30:23;4.20;99.90
4187;DHT22;2107;52.306;10.484;2022-12-07T03:32:56;4.10;99.90
4187;DHT22;2107;52.306;10.484;2022-12-07T03:35:27;4.10;99.90
4187;DHT22;2107;52.306;10.484;2022-12-07T03:37:57;4.10;99.90
4187;DHT22;2107;52.306;10.484;2022-12-07T03:40:28;4.10;99.90
4187;DHT22;2107;52.306;10.484;2022-12-07T03:42:57;4.10;99.90
4187;DHT22;2107;52.306;10.484;2022-12-07T03:45:33;4.10;99.90
4187;DHT22;2107;52.306;10.484;2022-12-07T03:48:08;4.10;99.90
4187;DHT22;2107;52.306;10.484;2022-12-07T03:50:40;4.00;99.90
4187;DHT22;2107;52.306;10.484;2022-12-07T03:53:13;4.00;99.90
4187;DHT22;2107;52.306;10.484;2022-12-07T03:55:43;3.90;99.90
4187;DHT22;2107;52.306;10.484;2022-12-07T03:58:12;3.90;99.90
4187;DHT22;2107;52.306;10.484;2022-12-07T04:00:40;3.90;99.90
4187;DHT22;2107;52.306;10.484;2022-12-07T04:03:10;3.90;99.90
4187;DHT22;2107;52.306;10.484;2022-12-07T04:05:37;3.90;99.90
4187;DHT22;2107;52.306;10.484;2022-12-07T04:08:05;3.90;99.90
4187;DHT22;2107;52.306;10.484;2022-12-07T04:10:32;3.90;99.90
4187;DHT22;2107;52.306;10.484;2022-12-07T04:12:59;3.90;99.90
4187;DHT22;2107;52.306;10.484;2022-12-07T04:15:25;4.00;99.90
4187;DHT22;2107;52.306;10.484;2022-12-07T04:17:52;4.00;99.90
4187;DHT22;2107;52.306;10.484;2022-12-07T04:20:21;4.10;99.90
4187;DHT22;2107;52.306;10.484;2022-12-07T04:22:48;4.10;99.90
4187;DHT22;2107;52.306;10.484;2022-12-07T04:25:15;4.10;99.90
4187;DHT22;2107;52.306;10.484;2022-12-07T04:27:42;4.10;99.90
4187;DHT22;2107;52.306;10.484;2022-12-07T04:30:09;4.10;99.90
4187;DHT22;2107;52.306;10.484;2022-12-07T04:32:36;4.10;99.90
4187;DHT22;2107;52.306;10.484;2022-12-07T04:35:04;4.10;99.90
4187;DHT22;2107;52.306;10.484;2022-12-07T04:37:33;4.00;99.90
4187;DHT22;2107;52.306;10.484;2022-12-07T04:40:00;3.90;99.90
4187;DHT22;2107;52.306;10.484;2022-12-07T04:42:26;3.90;99.90
4187;DHT22;2107;52.306;10.484;2022-12-07T04:44:53;3.80;99.90
4187;DHT22;2107;52.306;10.484;2022-12-07T04:47:20;3.90;99.90
4187;DHT22;2107;52.306;10.484;2022-12-07T04:49:47;3.80;99.90
4187;DHT22;2107;52.306;10.484;2022-12-07T04:52:14;3.70;99.90
4187;DHT22;2107;52.306;10.484;2022-12-07T04:54:42;3.70;99.90
4187;DHT22;2107;52.306;10.484;2022-12-07T04:57:09;3.60;99.90
4187;DHT22;2107;52.306;10.484;2022-12-07T04:59:36;3.60;99.90
4187;DHT22;2107;52.306;10.484;2022-12-07T05:02:03;3.60;99.90
4187;DHT22;2107;52.306;10.484;2022-12-07T05:04:30;3.50;99.90
4187;DHT22;2107;52.306;10.484;2022-12-07T05:06:56;3.50;99.90
4187;DHT22;2107;52.306;10.484;2022-12-07T05:09:23;3.50;99.90
4187;DHT22;2107;52.306;10.484;2022-12-07T05:11:51;3.40;99.90
4187;DHT22;2107;52.306;10.484;2022-12-07T05:14:20;3.40;99.90
4187;DHT22;2107;52.306;10.484;2022-12-07T05:16:48;3.40;99.90
4187;DHT22;2107;52.306;10.484;2022-12-07T05:19:15;3.30;99.90
4187;DHT22;2107;52.306;10.484;2022-12-07T05:21:42;3.40;99.90
4187;DHT22;2107;52.306;10.484;2022-12-07T05:24:11;3.40;99.90
4187;DHT22;2107;52.306;10.484;2022-12-07T05:26:38;3.30;99.90
4187;DHT22;2107;52.306;10.484;2022-12-07T05:29:09;3.40;99.90
4187;DHT22;2107;52.306;10.484;2022-12-07T05:31:37;3.30;99.90
4187;DHT22;2107;52.306;10.484;2022-12-07T05:34:03;3.40;99.90
4187;DHT22;2107;52.306;10.484;2022-12-07T05:36:30;3.40;99.90
4187;DHT22;2107;52.306;10.484;2022-12-07T05:38:58;3.40;99.90
4187;DHT22;2107;52.306;10.484;2022-12-07T05:41:25;3.50;99.90
4187;DHT22;2107;52.306;10.484;2022-12-07T05:44:11;3.50;99.90
4187;DHT22;2107;52.306;10.484;2022-12-07T05:46:38;3.60;99.90
4187;DHT22;2107;52.306;10.484;2022-12-07T05:49:05;3.70;99.90
4187;DHT22;2107;52.306;10.484;2022-12-07T05:51:32;3.70;99.90
4187;DHT22;2107;52.306;10.484;2022-12-07T05:53:59;3.70;99.90
4187;DHT22;2107;52.306;10.484;2022-12-07T05:56:26;3.80;99.90
4187;DHT22;2107;52.306;10.484;2022-12-07T05:58:53;3.70;99.90
4187;DHT22;2107;52.306;10.484;2022-12-07T06:01:38;3.70;99.90
4187;DHT22;2107;52.306;10.484;2022-12-07T06:04:05;3.70;99.90
4187;DHT22;2107;52.306;10.484;2022-12-07T06:06:32;3.80;99.90
4187;DHT22;2107;52.306;10.484;2022-12-07T06:08:59;3.70;99.90
4187;DHT22;2107;52.306;10.484;2022-12-07T06:11:26;3.70;99.90
4187;DHT22;2107;52.306;10.484;2022-12-07T06:14:10;3.70;99.90
4187;DHT22;2107;52.306;10.484;2022-12-07T06:16:39;3.70;99.90
4187;DHT22;2107;52.306;10.484;2022-12-07T06:19:05;3.60;99.90
4187;DHT22;2107;52.306;10.484;2022-12-07T06:21:32;3.50;99.90
4187;DHT22;2107;52.306;10.484;2022-12-07T06:23:59;3.30;99.90
4187;DHT22;2107;52.306;10.484;2022-12-07T06:26:26;3.30;99.90
4187;DHT22;2107;52.306;10.484;2022-12-07T06:28:53;3.20;99.90
4187;DHT22;2107;52.306;10.484;2022-12-07T06:31:20;3.10;99.90
4187;DHT22;2107;52.306;10.484;2022-12-07T06:33:48;3.00;99.90
4187;DHT22;2107;52.306;10.484;2022-12-07T06:36:15;3.00;99.90
4187;DHT22;2107;52.306;10.484;2022-12-07T06:38:42;3.00;99.90
4187;DHT22;2107;52.306;10.484;2022-12-07T06:41:09;3.00;99.90
4187;DHT22;2107;52.306;10.484;2022-12-07T06:43:36;3.00;99.90
4187;DHT22;2107;52.306;10.484;2022-12-07T06:46:04;3.10;99.90
4187;DHT22;2107;52.306;10.484;2022-12-07T06:48:30;3.20;99.90
4187;DHT22;2107;52.306;10.484;2022-12-07T06:50:59;3.20;99.90
4187;DHT22;2107;52.306;10.484;2022-12-07T06:53:26;3.30;99.90
4187;DHT22;2107;52.306;10.484;2022-12-07T06:55:52;3.30;99.90
4187;DHT22;2107;52.306;10.484;2022-12-07T06:58:19;3.40;99.90
4187;DHT22;2107;52.306;10.484;2022-12-07T07:00:48;3.50;99.90
4187;DHT22;2107;52.306;10.484;2022-12-07T07:03:15;3.50;99.90
4187;DHT22;2107;52.306;10.484;2022-12-07T07:05:42;3.50;99.90
4187;DHT22;2107;52.306;10.484;2022-12-07T07:08:11;3.60;99.90
4187;DHT22;2107;52.306;10.484;2022-12-07T07:10:39;3.60;99.90
4187;DHT22;2107;52.306;10.484;2022-12-07T07:13:05;3.60;99.90
4187;DHT22;2107;52.306;10.484;2022-12-07T07:15:33;3.60;99.90
4187;DHT22;2107;52.306;10.484;2022-12-07T07:18:00;3.60;99.90
4187;DHT22;2107;52.306;10.484;2022-12-07T07:20:28;3.50;99.90
4187;DHT22;2107;52.306;10.484;2022-12-07T07:22:55;3.50;99.90
4187;DHT22;2107;52.306;10.484;2022-12-07T07:25:24;3.50;99.90
4187;DHT22;2107;52.306;10.484;2022-12-07T07:27:50;3.50;99.90
4187;DHT22;2107;52.306;10.484;2022-12-07T07:30:17;3.50;99.90
4187;DHT22;2107;52.306;10.484;2022-12-07T07:32:44;3.60;99.90
4187;DHT22;2107;52.306;10.484;2022-12-07T07:35:11;3.60;99.90
4187;DHT22;2107;52.306;10.484;2022-12-07T07:37:39;3.60;99.90
4187;DHT22;2107;52.306;10.484;2022-12-07T07:40:07;3.70;99.90
4187;DHT22;2107;52.306;10.484;2022-12-07T07:42:35;3.70;99.90
4187;DHT22;2107;52.306;10.484;2022-12-07T07:45:03;3.70;99.90
4187;DHT22;2107;52.306;10.484;2022-12-07T07:47:30;3.60;99.90
4187;DHT22;2107;52.306;10.484;2022-12-07T07:49:57;3.70;99.90
4187;DHT22;2107;52.306;10.484;2022-12-07T07:52:24;3.70;99.90
4187;DHT22;2107;52.306;10.484;2022-12-07T07:54:50;3.70;99.90
4187;DHT22;2107;52.306;10.484;2022-12-07T07:57:17;3.70;99.90
4187;DHT22;2107;52.306;10.484;2022-12-07T07:59:45;3.60;99.90
4187;DHT22;2107;52.306;10.484;2022-12-07T08:02:15;3.70;99.90
4187;DHT22;2107;52.306;10.484;2022-12-07T08:04:42;3.60;99.90
4187;DHT22;2107;52.306;10.484;2022-12-07T08:07:12;3.70;99.90
4187;DHT22;2107;52.306;10.484;2022-12-07T08:09:39;3.70;99.90
4187;DHT22;2107;52.306;10.484;2022-12-07T08:12:06;3.60;99.90
4187;DHT22;2107;52.306;10.484;2022-12-07T08:14:34;3.60;99.90
4187;DHT22;2107;52.306;10.484;2022-12-07T08:17:02;3.60;99.90
4187;DHT22;2107;52.306;10.484;2022-12-07T08:19:29;3.70;99.90
4187;DHT22;2107;52.306;10.484;2022-12-07T08:21:56;3.70;99.90
4187;DHT22;2107;52.306;10.484;2022-12-07T08:24:23;3.80;99.90
4187;DHT22;2107;52.306;10.484;2022-12-07T08:26:50;3.70;99.90
4187;DHT22;2107;52.306;10.484;2022-12-07T08:29:18;3.70;99.90
4187;DHT22;2107;52.306;10.484;2022-12-07T08:31:45;3.70;99.90
4187;DHT22;2107;52.306;10.484;2022-12-07T08:34:13;3.70;99.90
4187;DHT22;2107;52.306;10.484;2022-12-07T08:36:40;3.70;99.90
4187;DHT22;2107;52.306;10.484;2022-12-07T08:39:08;3.80;99.90
4187;DHT22;2107;52.306;10.484;2022-12-07T08:41:35;3.80;99.90
4187;DHT22;2107;52.306;10.484;2022-12-07T08:44:03;3.70;99.90
4187;DHT22;2107;52.306;10.484;2022-12-07T08:46:33;3.80;99.90
4187;DHT22;2107;52.306;10.484;2022-12-07T08:49:05;3.80;99.90
4187;DHT22;2107;52.306;10.484;2022-12-07T08:51:34;3.80;99.90
4187;DHT22;2107;52.306;10.484;2022-12-07T08:54:04;3.80;99.90
4187;DHT22;2107;52.306;10.484;2022-12-07T08:56:32;3.80;99.90
4187;DHT22;2107;52.306;10.484;2022-12-07T08:58:59;3.80;99.90
4187;DHT22;2107;52.306;10.484;2022-12-07T09:01:26;3.80;99.90
4187;DHT22;2107;52.306;10.484;2022-12-07T09:03:54;3.80;99.90
4187;DHT22;2107;52.306;10.484;2022-12-07T09:06:21;3.80;99.90
4187;DHT22;2107;52.306;10.484;2022-12-07T09:08:52;3.80;99.90
4187;DHT22;2107;52.306;10.484;2022-12-07T09:11:20;3.70;99.90
4187;DHT22;2107;52.306;10.484;2022-12-07T09:13:47;3.80;99.90
4187;DHT22;2107;52.306;10.484;2022-12-07T09:16:14;3.80;99.90
4187;DHT22;2107;52.306;10.484;2022-12-07T09:18:41;3.80;99.90
4187;DHT22;2107;52.306;10.484;2022-12-07T09:21:08;3.90;99.90
4187;DHT22;2107;52.306;10.484;2022-12-07T09:23:35;3.80;99.90
4187;DHT22;2107;52.306;10.484;2022-12-07T09:26:04;3.80;99.90
4187;DHT22;2107;52.306;10.484;2022-12-07T09:28:31;3.90;99.90
4187;DHT22;2107;52.306;10.484;2022-12-07T09:30:58;3.90;99.90
4187;DHT22;2107;52.306;10.484;2022-12-07T09:33:25;4.00;99.90
4187;DHT22;2107;52.306;10.484;2022-12-07T09:35:52;4.10;99.90
4187;DHT22;2107;52.306;10.484;2022-12-07T09:38:19;4.10;99.90
4187;DHT22;2107;52.306;10.484;2022-12-07T09:40:47;4.10;99.90
4187;DHT22;2107;52.306;10.484;2022-12-07T09:43:17;4.10;99.90
4187;DHT22;2107;52.306;10.484;2022-12-07T09:45:45;4.10;99.90
4187;DHT22;2107;52.306;10.484;2022-12-07T09:48:17;4.10;99.90
4187;DHT22;2107;52.306;10.484;2022-12-07T09:50:46;4.20;99.90
4187;DHT22;2107;52.306;10.484;2022-12-07T09:53:16;4.20;99.90
4187;DHT22;2107;52.306;10.484;2022-12-07T09:55:44;4.10;99.90
4187;DHT22;2107;52.306;10.484;2022-12-07T09:58:18;4.20;99.90
4187;DHT22;2107;52.306;10.484;2022-12-07T10:00:46;4.10;99.90
4187;DHT22;2107;52.306;10.484;2022-12-07T10:03:12;4.20;99.90
4187;DHT22;2107;52.306;10.484;2022-12-07T10:05:44;4.20;99.90
4187;DHT22;2107;52.306;10.484;2022-12-07T10:08:13;4.10;99.90
4187;DHT22;2107;52.306;10.484;2022-12-07T10:10:41;4.00;99.90
4187;DHT22;2107;52.306;10.484;2022-12-07T10:13:10;4.00;99.90
4187;DHT22;2107;52.306;10.484;2022-12-07T10:15:48;4.10;99.90
4187;DHT22;2107;52.306;10.484;2022-12-07T10:18:29;4.10;99.90
4187;DHT22;2107;52.306;10.484;2022-12-07T10:21:09;4.20;99.90
4187;DHT22;2107;52.306;10.484;2022-12-07T10:23:38;4.30;99.90
4187;DHT22;2107;52.306;10.484;2022-12-07T10:26:30;4.20;99.90
4187;DHT22;2107;52.306;10.484;2022-12-07T10:28:59;4.20;99.90
4187;DHT22;2107;52.306;10.484;2022-12-07T10:31:28;4.20;99.90
4187;DHT22;2107;52.306;10.484;2022-12-07T10:33:57;4.40;99.90
4187;DHT22;2107;52.306;10.484;2022-12-07T10:36:26;4.50;99.90
4187;DHT22;2107;52.306;10.484;2022-12-07T10:38:59;4.40;99.90
4187;DHT22;2107;52.306;10.484;2022-12-07T10:41:26;4.40;99.90
4187;DHT22;2107;52.306;10.484;2022-12-07T10:43:54;4.50;99.90
4187;DHT22;2107;52.306;10.484;2022-12-07T10:46:49;4.70;99.90
4187;DHT22;2107;52.306;10.484;2022-12-07T10:49:53;4.70;99.90
4187;DHT22;2107;52.306;10.484;2022-12-07T10:55:23;4.80;99.90
4187;DHT22;2107;52.306;10.484;2022-12-07T10:58:09;4.70;99.90
4187;DHT22;2107;52.306;10.484;2022-12-07T11:00:48;4.80;99.90
4187;DHT22;2107;52.306;10.484;2022-12-07T11:03:41;4.80;99.90
4187;DHT22;2107;52.306;10.484;2022-12-07T11:06:22;4.80;99.90
4187;DHT22;2107;52.306;10.484;2022-12-07T11:09:06;4.80;99.90
4187;DHT22;2107;52.306;10.484;2022-12-07T11:11:47;4.90;99.90
4187;DHT22;2107;52.306;10.484;2022-12-07T11:14:22;4.90;99.90
4187;DHT22;2107;52.306;10.484;2022-12-07T11:16:55;4.90;99.90
4187;DHT22;2107;52.306;10.484;2022-12-07T11:19:43;4.80;99.90
4187;DHT22;2107;52.306;10.484;2022-12-07T11:22:20;4.80;99.90
4187;DHT22;2107;52.306;10.484;2022-12-07T11:24:55;5.00;99.90
4187;DHT22;2107;52.306;10.484;2022-12-07T11:27:28;5.10;99.90
4187;DHT22;2107;52.306;10.484;2022-12-07T11:30:19;5.00;99.90
4187;DHT22;2107;52.306;10.484;2022-12-07T11:32:57;5.20;99.90
4187;DHT22;2107;52.306;10.484;2022-12-07T11:35:35;5.20;99.90
4187;DHT22;2107;52.306;10.484;2022-12-07T11:38:10;5.20;99.90
4187;DHT22;2107;52.306;10.484;2022-12-07T11:40:38;5.30;99.90
4187;DHT22;2107;52.306;10.484;2022-12-07T11:43:15;5.20;99.90
4187;DHT22;2107;52.306;10.484;2022-12-07T11:45:47;5.30;99.90
4187;DHT22;2107;52.306;10.484;2022-12-07T11:48:19;5.20;99.90
4187;DHT22;2107;52.306;10.484;2022-12-07T11:50:52;5.10;99.90
4187;DHT22;2107;52.306;10.484;2022-12-07T11:53:22;5.00;99.90
4187;DHT22;2107;52.306;10.484;2022-12-07T11:55:56;5.00;99.90
4187;DHT22;2107;52.306;10.484;2022-12-07T11:58:39;4.90;99.90
4187;DHT22;2107;52.306;10.484;2022-12-07T12:01:15;4.80;99.90
4187;DHT22;2107;52.306;10.484;2022-12-07T12:03:48;4.80;99.90
4187;DHT22;2107;52.306;10.484;2022-12-07T12:06:17;4.70;99.90
4187;DHT22;2107;52.306;10.484;2022-12-07T12:08:48;4.60;99.90
4187;DHT22;2107;52.306;10.484;2022-12-07T12:11:29;4.60;99.90
4187;DHT22;2107;52.306;10.484;2022-12-07T12:14:29;4.50;99.90
4187;DHT22;2107;52.306;10.484;2022-12-07T12:17:17;4.40;99.90
4187;DHT22;2107;52.306;10.484;2022-12-07T12:20:00;4.40;99.90
4187;DHT22;2107;52.306;10.484;2022-12-07T12:22:34;4.50;99.90
4187;DHT22;2107;52.306;10.484;2022-12-07T12:25:04;4.60;99.90
4187;DHT22;2107;52.306;10.484;2022-12-07T12:27:34;4.60;99.90
4187;DHT22;2107;52.306;10.484;2022-12-07T12:30:06;4.60;99.90
4187;DHT22;2107;52.306;10.484;2022-12-07T12:32:38;4.60;99.90
4187;DHT22;2107;52.306;10.484;2022-12-07T12:35:22;4.80;99.90
4187;DHT22;2107;52.306;10.484;2022-12-07T12:37:57;4.90;99.90
4187;DHT22;2107;52.306;10.484;2022-12-07T12:40:43;4.90;99.90
4187;DHT22;2107;52.306;10.484;2022-12-07T12:43:50;5.00;99.90
4187;DHT22;2107;52.306;10.484;2022-12-07T12:46:44;4.80;99.90
4187;DHT22;2107;52.306;10.484;2022-12-07T12:49:42;4.60;99.90
4187;DHT22;2107;52.306;10.484;2022-12-07T12:55:18;4.50;99.90
4187;DHT22;2107;52.306;10.484;2022-12-07T12:57:47;4.50;99.90
4187;DHT22;2107;52.306;10.484;2022-12-07T13:00:34;4.60;99.90
4187;DHT22;2107;52.306;10.484;2022-12-07T13:03:01;4.90;99.90
4187;DHT22;2107;52.306;10.484;2022-12-07T13:05:29;5.00;99.90
4187;DHT22;2107;52.306;10.484;2022-12-07T13:07:59;4.80;99.90
4187;DHT22;2107;52.306;10.484;2022-12-07T13:10:46;4.80;99.90
4187;DHT22;2107;52.306;10.484;2022-12-07T13:13:34;4.80;99.90
4187;DHT22;2107;52.306;10.484;2022-12-07T13:16:38;4.80;99.90
4187;DHT22;2107;52.306;10.484;2022-12-07T13:22:49;4.90;99.90
4187;DHT22;2107;52.306;10.484;2022-12-07T13:25:29;4.90;99.90
4187;DHT22;2107;52.306;10.484;2022-12-07T13:28:06;4.90;99.90
4187;DHT22;2107;52.306;10.484;2022-12-07T13:30:42;4.90;99.90
4187;DHT22;2107;52.306;10.484;2022-12-07T13:33:10;4.90;99.90
4187;DHT22;2107;52.306;10.484;2022-12-07T13:35:37;4.90;99.90
4187;DHT22;2107;52.306;10.484;2022-12-07T13:38:15;4.90;99.90
4187;DHT22;2107;52.306;10.484;2022-12-07T13:41:03;4.80;99.90
4187;DHT22;2107;52.306;10.484;2022-12-07T13:43:41;4.60;99.90
4187;DHT22;2107;52.306;10.484;2022-12-07T13:46:11;4.50;99.90
4187;DHT22;2107;52.306;10.484;2022-12-07T13:48:44;4.50;99.90
4187;DHT22;2107;52.306;10.484;2022-12-07T13:51:18;4.40;99.90
4187;DHT22;2107;52.306;10.484;2022-12-07T13:53:51;4.40;99.90
4187;DHT22;2107;52.306;10.484;2022-12-07T13:56:20;4.30;99.90
4187;DHT22;2107;52.306;10.484;2022-12-07T13:58:49;4.30;99.90
4187;DHT22;2107;52.306;10.484;2022-12-07T14:01:16;4.30;99.90
4187;DHT22;2107;52.306;10.484;2022-12-07T14:03:43;4.30;99.90
4187;DHT22;2107;52.306;10.484;2022-12-07T14:06:22;4.20;99.90
4187;DHT22;2107;52.306;10.484;2022-12-07T14:08:50;4.30;99.90
4187;DHT22;2107;52.306;10.484;2022-12-07T14:11:19;4.20;99.90
4187;DHT22;2107;52.306;10.484;2022-12-07T14:13:58;4.20;99.90
4187;DHT22;2107;52.306;10.484;2022-12-07T14:16:28;4.20;99.90
4187;DHT22;2107;52.306;10.484;2022-12-07T14:18:57;4.20;99.90
4187;DHT22;2107;52.306;10.484;2022-12-07T14:21:26;4.20;99.90
4187;DHT22;2107;52.306;10.484;2022-12-07T14:24:17;4.10;99.90
4187;DHT22;2107;52.306;10.484;2022-12-07T14:26:45;4.20;99.90
4187;DHT22;2107;52.306;10.484;2022-12-07T14:29:31;4.10;99.90
4187;DHT22;2107;52.306;10.484;2022-12-07T14:32:20;4.20;99.90
4187;DHT22;2107;52.306;10.484;2022-12-07T14:34:59;4.00;99.90
4187;DHT22;2107;52.306;10.484;2022-12-07T14:37:27;4.00;99.90
4187;DHT22;2107;52.306;10.484;2022-12-07T14:39:54;4.00;99.90
4187;DHT22;2107;52.306;10.484;2022-12-07T14:42:23;4.00;99.90
4187;DHT22;2107;52.306;10.484;2022-12-07T14:44:52;4.00;99.90
4187;DHT22;2107;52.306;10.484;2022-12-07T14:47:19;4.00;99.90
4187;DHT22;2107;52.306;10.484;2022-12-07T14:49:46;4.10;99.90
4187;DHT22;2107;52.306;10.484;2022-12-07T14:52:15;4.10;99.90
4187;DHT22;2107;52.306;10.484;2022-12-07T14:54:43;4.10;99.90
4187;DHT22;2107;52.306;10.484;2022-12-07T14:57:10;4.00;99.90
4187;DHT22;2107;52.306;10.484;2022-12-07T14:59:37;4.10;99.90
4187;DHT22;2107;52.306;10.484;2022-12-07T15:02:06;4.20;99.90
4187;DHT22;2107;52.306;10.484;2022-12-07T15:04:33;4.00;99.90
4187;DHT22;2107;52.306;10.484;2022-12-07T15:07:02;4.10;99.90
4187;DHT22;2107;52.306;10.484;2022-12-07T15:09:30;4.10;99.90
4187;DHT22;2107;52.306;10.484;2022-12-07T15:11:57;4.10;99.90
4187;DHT22;2107;52.306;10.484;2022-12-07T15:14:23;4.20;99.90
4187;DHT22;2107;52.306;10.484;2022-12-07T15:16:50;4.10;99.90
4187;DHT22;2107;52.306;10.484;2022-12-07T15:19:20;4.10;99.90
4187;DHT22;2107;52.306;10.484;2022-12-07T15:21:48;4.10;99.90
4187;DHT22;2107;52.306;10.484;2022-12-07T15:24:15;4.10;99.90
4187;DHT22;2107;52.306;10.484;2022-12-07T15:26:42;4.00;99.90
4187;DHT22;2107;52.306;10.484;2022-12-07T15:29:10;3.90;99.90
4187;DHT22;2107;52.306;10.484;2022-12-07T15:31:37;4.00;99.90
4187;DHT22;2107;52.306;10.484;2022-12-07T15:34:04;3.90;99.90
4187;DHT22;2107;52.306;10.484;2022-12-07T15:36:33;3.90;99.90
4187;DHT22;2107;52.306;10.484;2022-12-07T15:39:00;3.90;99.90
4187;DHT22;2107;52.306;10.484;2022-12-07T15:41:27;3.90;99.90
4187;DHT22;2107;52.306;10.484;2022-12-07T15:43:54;4.00;99.90
4187;DHT22;2107;52.306;10.484;2022-12-07T15:46:40;4.00;99.90
4187;DHT22;2107;52.306;10.484;2022-12-07T15:49:11;3.90;99.90
4187;DHT22;2107;52.306;10.484;2022-12-07T15:51:40;3.90;99.90
4187;DHT22;2107;52.306;10.484;2022-12-07T15:54:08;3.80;99.90
4187;DHT22;2107;52.306;10.484;2022-12-07T15:56:35;3.80;99.90
4187;DHT22;2107;52.306;10.484;2022-12-07T15:59:02;3.70;99.90
4187;DHT22;2107;52.306;10.484;2022-12-07T16:01:28;3.30;99.90
4187;DHT22;2107;52.306;10.484;2022-12-07T16:03:57;3.20;99.90
4187;DHT22;2107;52.306;10.484;2022-12-07T16:06:25;3.10;99.90
4187;DHT22;2107;52.306;10.484;2022-12-07T16:08:53;2.70;99.90
4187;DHT22;2107;52.306;10.484;2022-12-07T16:11:21;2.70;99.90
4187;DHT22;2107;52.306;10.484;2022-12-07T16:13:48;2.70;99.90
4187;DHT22;2107;52.306;10.484;2022-12-07T16:16:17;2.60;99.90
4187;DHT22;2107;52.306;10.484;2022-12-07T16:18:45;2.30;99.90
4187;DHT22;2107;52.306;10.484;2022-12-07T16:21:13;2.30;99.90
4187;DHT22;2107;52.306;10.484;2022-12-07T16:23:40;2.20;99.90
4187;DHT22;2107;52.306;10.484;2022-12-07T16:26:11;2.20;99.90
4187;DHT22;2107;52.306;10.484;2022-12-07T16:28:38;2.20;99.90
4187;DHT22;2107;52.306;10.484;2022-12-07T16:31:07;2.10;99.90
4187;DHT22;2107;52.306;10.484;2022-12-07T16:33:36;2.00;99.90
4187;DHT22;2107;52.306;10.484;2022-12-07T16:36:04;1.90;99.90
4187;DHT22;2107;52.306;10.484;2022-12-07T16:38:31;1.90;99.90